createdAt,value
2023-05-01T00:00:14.985Z,98330.59
2023-05-01T00:03:22.333Z,98328.22
2023-05-01T00:06:25.206Z,98322.09
2023-05-01T00:09:28.904Z,98329.22
2023-05-01T00:12:31.779Z,98329.44
2023-05-01T00:15:34.473Z,98326.16
2023-05-01T00:18:37.654Z,98327.81
2023-05-01T00:21:40.589Z,98317.59
2023-05-01T00:24:43.400Z,98325.22
2023-05-01T00:27:46.168Z,98323.94
2023-05-01T00:30:49.011Z,98315.16
2023-05-01T00:33:51.726Z,98312.44
2023-05-01T00:36:54.752Z,98318.16
2023-05-01T00:39:57.745Z,98314.72
2023-05-01T00:43:01.032Z,98316.25
2023-05-01T00:46:04.106Z,98309.84
2023-05-01T00:49:07.037Z,98309.50
2023-05-01T00:52:12.516Z,98303.56
2023-05-01T00:55:15.280Z,98305.94
2023-05-01T00:58:18.942Z,98301.53
2023-05-01T01:01:22.482Z,98305.09
2023-05-01T01:04:26.361Z,98298.72
2023-05-01T01:07:51.415Z,98303.47
2023-05-01T01:11:12.169Z,98299.78
2023-05-01T01:14:22.242Z,98307.59
2023-05-01T01:17:32.325Z,98294.22
2023-05-01T01:20:41.761Z,98301.56
2023-05-01T01:24:12.104Z,98301.09
2023-05-01T01:27:52.768Z,98293.03
2023-05-01T01:31:15.901Z,98294.91
2023-05-01T01:34:28.216Z,98295.50
2023-05-01T01:37:33.943Z,98297.53
2023-05-01T01:40:45.543Z,98299.19
2023-05-01T01:43:56.000Z,98297.28
2023-05-01T01:47:00.143Z,98304.41
2023-05-01T01:50:05.954Z,98300.81
2023-05-01T01:53:10.698Z,98296.34
2023-05-01T01:56:16.080Z,98295.72
2023-05-01T01:59:20.874Z,98289.22
2023-05-01T02:02:24.258Z,98302.72
2023-05-01T02:05:27.585Z,98298.09
2023-05-01T02:08:31.893Z,98290.84
2023-05-01T02:11:37.558Z,98300.31
2023-05-01T02:14:41.492Z,98299.38
2023-05-01T02:17:44.311Z,98298.78
2023-05-01T02:20:47.284Z,98302.06
2023-05-01T02:23:50.036Z,98306.44
2023-05-01T02:27:00.003Z,98301.00
2023-05-01T02:30:05.902Z,98291.09
2023-05-01T02:33:09.431Z,98297.66
2023-05-01T02:36:13.815Z,98298.31
2023-05-01T02:39:17.285Z,98284.22
2023-05-01T02:42:23.074Z,98289.44
2023-05-01T02:45:27.071Z,98291.94
2023-05-01T02:48:31.405Z,98290.22
2023-05-01T02:51:34.843Z,98285.88
2023-05-01T02:54:39.096Z,98295.47
2023-05-01T02:57:42.325Z,98289.88
2023-05-01T03:00:45.755Z,98294.16
2023-05-01T03:03:49.014Z,98293.47
2023-05-01T03:06:52.381Z,98294.88
2023-05-01T03:09:55.515Z,98295.22
2023-05-01T03:12:58.758Z,98286.84
2023-05-01T03:16:04.720Z,98292.75
2023-05-01T03:19:07.610Z,98293.41
2023-05-01T03:22:10.246Z,98296.16
2023-05-01T03:25:13.573Z,98301.91
2023-05-01T03:28:16.694Z,98296.00
2023-05-01T03:31:19.338Z,98299.09
2023-05-01T03:34:22.021Z,98301.41
2023-05-01T03:37:25.230Z,98297.63
2023-05-01T03:40:28.510Z,98286.09
2023-05-01T03:43:50.754Z,98289.66
2023-05-01T03:47:06.372Z,98295.91
2023-05-01T03:50:14.871Z,98302.78
2023-05-01T03:53:19.368Z,98300.00
2023-05-01T03:56:22.509Z,98299.78
2023-05-01T03:59:25.631Z,98290.81
2023-05-01T04:02:28.446Z,98295.19
2023-05-01T04:05:32.115Z,98296.75
2023-05-01T04:08:38.371Z,98300.81
2023-05-01T04:11:41.160Z,98301.31
2023-05-01T04:14:44.913Z,98302.28
2023-05-01T04:17:48.839Z,98299.69
2023-05-01T04:20:53.562Z,98289.47
2023-05-01T04:23:56.568Z,98282.56
2023-05-01T04:26:59.285Z,98288.25
2023-05-01T04:30:02.006Z,98289.88
2023-05-01T04:33:12.042Z,98292.09
2023-05-01T04:36:15.773Z,98295.25
2023-05-01T04:39:20.449Z,98299.13
2023-05-01T04:42:23.413Z,98299.28
2023-05-01T04:45:26.265Z,98302.88
2023-05-01T04:48:30.116Z,98298.25
2023-05-01T04:51:32.896Z,98306.16
2023-05-01T04:54:39.513Z,98299.56
2023-05-01T04:57:42.501Z,98309.50
2023-05-01T05:00:46.378Z,98302.94
2023-05-01T05:03:55.853Z,98303.22
2023-05-01T05:06:58.671Z,98300.81
2023-05-01T05:10:11.227Z,98299.69
2023-05-01T05:13:15.351Z,98303.38
2023-05-01T05:16:18.463Z,98298.69
2023-05-01T05:19:21.400Z,98306.91
2023-05-01T05:22:26.360Z,98305.84
2023-05-01T05:25:52.774Z,98306.59
2023-05-01T05:28:55.558Z,98305.44
2023-05-01T05:32:00.047Z,98307.16
2023-05-01T05:35:03.387Z,98313.72
2023-05-01T05:38:06.535Z,98318.88
2023-05-01T05:41:12.999Z,98323.00
2023-05-01T05:44:15.967Z,98322.25
2023-05-01T05:47:19.219Z,98319.66
2023-05-01T05:50:22.221Z,98313.00
2023-05-01T05:53:26.292Z,98328.81
2023-05-01T05:56:30.314Z,98322.28
2023-05-01T05:59:34.158Z,98312.50
2023-05-01T06:02:37.514Z,98322.59
2023-05-01T06:05:41.246Z,98314.97
2023-05-01T06:08:46.094Z,98322.88
2023-05-01T06:11:49.138Z,98318.00
2023-05-01T06:14:52.905Z,98323.97
2023-05-01T06:17:57.212Z,98314.97
2023-05-01T06:21:00.383Z,98318.28
2023-05-01T06:24:03.285Z,98326.50
2023-05-01T06:27:15.116Z,98319.84
2023-05-01T06:30:20.165Z,98322.56
2023-05-01T06:33:23.051Z,98316.44
2023-05-01T06:36:37.589Z,98312.03
2023-05-01T06:39:40.590Z,98314.75
2023-05-01T06:42:43.353Z,98317.53
2023-05-01T06:45:46.762Z,98317.28
2023-05-01T06:48:49.855Z,98313.81
2023-05-01T06:51:52.983Z,98313.94
2023-05-01T06:54:55.742Z,98317.69
2023-05-01T06:57:59.779Z,98312.69
2023-05-01T07:01:05.424Z,98311.53
2023-05-01T07:04:08.272Z,98311.19
2023-05-01T07:07:11.626Z,98309.88
2023-05-01T07:10:14.430Z,98310.59
2023-05-01T07:13:17.566Z,98308.63
2023-05-01T07:16:21.170Z,98303.19
2023-05-01T07:19:24.436Z,98307.19
2023-05-01T07:22:29.507Z,98308.97
2023-05-01T07:25:34.375Z,98301.25
2023-05-01T07:28:37.155Z,98307.91
2023-05-01T07:31:42.333Z,98309.06
2023-05-01T07:34:45.366Z,98302.88
2023-05-01T07:37:52.169Z,98295.56
2023-05-01T07:40:55.271Z,98302.41
2023-05-01T07:44:01.214Z,98305.06
2023-05-01T07:47:04.825Z,98304.84
2023-05-01T07:50:12.000Z,98301.03
2023-05-01T07:53:15.048Z,98309.41
2023-05-01T07:56:17.986Z,98307.53
2023-05-01T07:59:20.846Z,98305.06
2023-05-01T08:02:23.982Z,98300.06
2023-05-01T08:05:27.082Z,98305.47
2023-05-01T08:08:29.827Z,98302.72
2023-05-01T08:11:33.964Z,98297.63
2023-05-01T08:14:36.678Z,98301.91
2023-05-01T08:17:39.957Z,98300.41
2023-05-01T08:20:42.787Z,98299.47
2023-05-01T08:23:45.865Z,98296.94
2023-05-01T08:26:49.251Z,98299.97
2023-05-01T08:29:52.020Z,98299.09
2023-05-01T08:32:54.776Z,98309.56
2023-05-01T08:35:57.415Z,98300.56
2023-05-01T08:39:00.197Z,98301.03
2023-05-01T08:42:03.802Z,98310.97
2023-05-01T08:45:09.184Z,98300.94
2023-05-01T08:48:13.367Z,98309.56
2023-05-01T08:51:20.057Z,98306.50
2023-05-01T08:54:25.128Z,98305.47
2023-05-01T08:57:29.053Z,98307.22
2023-05-01T09:00:32.393Z,98302.56
2023-05-01T09:03:35.700Z,98310.19
2023-05-01T09:06:38.713Z,98294.97
2023-05-01T09:09:41.932Z,98304.47
2023-05-01T09:12:46.811Z,98292.06
2023-05-01T09:15:49.715Z,98288.03
2023-05-01T09:18:53.455Z,98284.31
2023-05-01T09:21:56.345Z,98286.44
2023-05-01T09:24:59.657Z,98275.41
2023-05-01T09:28:05.565Z,98285.09
2023-05-01T09:31:23.277Z,98276.75
2023-05-01T09:34:26.012Z,98276.09
2023-05-01T09:37:33.347Z,98280.25
2023-05-01T09:40:36.222Z,98280.41
2023-05-01T09:43:39.441Z,98274.53
2023-05-01T09:46:44.188Z,98279.31
2023-05-01T09:49:50.390Z,98275.69
2023-05-01T09:52:53.385Z,98276.25
2023-05-01T09:56:02.801Z,98269.56
2023-05-01T09:59:20.585Z,98274.50
2023-05-01T10:02:31.379Z,98258.44
2023-05-01T10:05:44.649Z,98257.66
2023-05-01T10:08:49.510Z,98262.38
2023-05-01T10:11:54.820Z,98257.44
2023-05-01T10:14:58.554Z,98255.31
2023-05-01T10:18:01.673Z,98251.94
2023-05-01T10:21:05.313Z,98250.28
2023-05-01T10:24:10.373Z,98245.09
2023-05-01T10:27:13.846Z,98253.19
2023-05-01T10:30:20.823Z,98236.56
2023-05-01T10:33:24.139Z,98249.06
2023-05-01T10:36:34.795Z,98244.13
2023-05-01T10:39:37.780Z,98233.00
2023-05-01T10:43:17.685Z,98237.31
2023-05-01T10:46:20.483Z,98232.19
2023-05-01T10:49:23.476Z,98230.34
2023-05-01T10:52:26.651Z,98226.88
2023-05-01T10:55:49.550Z,98235.69
2023-05-01T10:58:58.694Z,98223.63
2023-05-01T11:02:24.340Z,98223.75
2023-05-01T11:06:05.036Z,98225.88
2023-05-01T11:09:37.826Z,98210.41
2023-05-01T11:12:46.940Z,98212.81
2023-05-01T11:15:49.894Z,98214.44
2023-05-01T11:18:52.970Z,98201.78
2023-05-01T11:21:56.172Z,98200.09
2023-05-01T11:24:59.214Z,98192.41
2023-05-01T11:28:04.108Z,98192.56
2023-05-01T11:31:07.079Z,98194.47
2023-05-01T11:34:10.777Z,98192.91
2023-05-01T11:37:13.703Z,98189.13
2023-05-01T11:40:21.410Z,98180.66
2023-05-01T11:43:24.388Z,98178.22
2023-05-01T11:46:32.608Z,98176.94
2023-05-01T11:49:36.042Z,98175.44
2023-05-01T11:52:47.044Z,98174.81
2023-05-01T11:55:52.764Z,98175.38
2023-05-01T11:58:56.653Z,98168.63
2023-05-01T12:01:59.526Z,98172.13
2023-05-01T12:05:18.668Z,98175.16
2023-05-01T12:08:22.916Z,98181.28
2023-05-01T12:11:26.488Z,98175.75
2023-05-01T12:14:29.223Z,98169.28
2023-05-01T12:17:33.372Z,98168.22
2023-05-01T12:20:40.591Z,98161.81
2023-05-01T12:23:43.674Z,98164.81
2023-05-01T12:26:47.135Z,98166.47
2023-05-01T12:29:50.305Z,98151.69
2023-05-01T12:32:53.159Z,98144.72
2023-05-01T12:35:56.010Z,98133.22
2023-05-01T12:39:10.122Z,98135.97
2023-05-01T12:42:15.228Z,98134.97
2023-05-01T12:45:18.076Z,98126.00
2023-05-01T12:48:21.236Z,98129.81
2023-05-01T12:51:24.492Z,98116.22
2023-05-01T12:54:32.023Z,98116.59
2023-05-01T12:57:35.238Z,98123.88
2023-05-01T13:00:49.719Z,98116.44
2023-05-01T13:03:52.588Z,98114.09
2023-05-01T13:06:58.894Z,98106.53
2023-05-01T13:10:02.132Z,98106.75
2023-05-01T13:13:05.392Z,98093.31
2023-05-01T13:16:10.503Z,98097.22
2023-05-01T13:19:13.790Z,98092.50
2023-05-01T13:22:16.582Z,98092.88
2023-05-01T13:25:23.676Z,98087.63
2023-05-01T13:28:26.465Z,98085.59
2023-05-01T13:31:29.845Z,98082.72
2023-05-01T13:34:34.202Z,98078.63
2023-05-01T13:37:37.033Z,98066.69
2023-05-01T13:40:40.582Z,98072.31
2023-05-01T13:43:43.508Z,98062.34
2023-05-01T13:46:47.072Z,98064.88
2023-05-01T13:49:49.986Z,98059.34
2023-05-01T13:52:52.894Z,98049.53
2023-05-01T13:55:55.826Z,98063.50
2023-05-01T13:59:01.970Z,98052.31
2023-05-01T14:02:15.932Z,98041.13
2023-05-01T14:05:23.846Z,98052.31
2023-05-01T14:08:29.077Z,98046.25
2023-05-01T14:11:31.985Z,98041.03
2023-05-01T14:14:36.225Z,98036.97
2023-05-01T14:17:39.325Z,98032.44
2023-05-01T14:20:42.402Z,98038.66
2023-05-01T14:23:45.836Z,98040.19
2023-05-01T14:26:49.791Z,98033.78
2023-05-01T14:29:52.491Z,98029.34
2023-05-01T14:32:55.606Z,98023.44
2023-05-01T14:35:58.601Z,98023.66
2023-05-01T14:39:02.796Z,98022.25
2023-05-01T14:42:06.174Z,98020.84
2023-05-01T14:45:11.562Z,98010.25
2023-05-01T14:48:23.666Z,98016.06
2023-05-01T14:51:27.593Z,98021.06
2023-05-01T14:54:32.464Z,98011.97
2023-05-01T14:57:35.171Z,98012.81
2023-05-01T15:00:38.047Z,98011.88
2023-05-01T15:03:44.248Z,98013.06
2023-05-01T15:06:48.066Z,98000.13
2023-05-01T15:09:51.368Z,98006.75
2023-05-01T15:12:54.251Z,98011.41
2023-05-01T15:15:57.068Z,98006.78
2023-05-01T15:18:59.915Z,98003.13
2023-05-01T15:22:07.904Z,98000.47
2023-05-01T15:25:12.209Z,97997.56
2023-05-01T15:28:15.166Z,97996.41
2023-05-01T15:31:19.703Z,98001.75
2023-05-01T15:34:22.436Z,98003.34
2023-05-01T15:37:25.532Z,97995.34
2023-05-01T15:40:28.387Z,98001.34
2023-05-01T15:43:31.278Z,97993.31
2023-05-01T15:46:34.728Z,97988.97
2023-05-01T15:49:37.556Z,97984.38
2023-05-01T15:52:40.487Z,97987.00
2023-05-01T15:55:45.466Z,97986.75
2023-05-01T15:58:48.130Z,97984.38
2023-05-01T16:01:53.790Z,97987.16
2023-05-01T16:04:56.761Z,97990.03
2023-05-01T16:08:01.152Z,97983.38
2023-05-01T16:11:04.522Z,97978.03
2023-05-01T16:14:13.063Z,97985.22
2023-05-01T16:17:18.809Z,97986.00
2023-05-01T16:20:22.217Z,97983.06
2023-05-01T16:23:26.681Z,97982.75
2023-05-01T16:26:30.523Z,97973.97
2023-05-01T16:29:34.334Z,97968.75
2023-05-01T16:32:37.328Z,97969.63
2023-05-01T16:35:41.259Z,97965.13
2023-05-01T16:38:45.380Z,97964.47
2023-05-01T16:41:50.116Z,97971.47
2023-05-01T16:44:53.403Z,97964.56
2023-05-01T16:47:59.171Z,97973.19
2023-05-01T16:51:05.323Z,97975.50
2023-05-01T16:54:08.077Z,97979.53
2023-05-01T16:57:10.887Z,97983.50
2023-05-01T17:00:15.298Z,97983.69
2023-05-01T17:03:18.447Z,97988.44
2023-05-01T17:06:21.738Z,97983.31
2023-05-01T17:09:24.513Z,97979.63
2023-05-01T17:12:31.814Z,97990.28
2023-05-01T17:15:34.623Z,97989.47
2023-05-01T17:18:37.466Z,97989.91
2023-05-01T17:21:40.926Z,97984.78
2023-05-01T17:24:43.923Z,97993.59
2023-05-01T17:27:46.591Z,97988.50
2023-05-01T17:30:49.840Z,97987.88
2023-05-01T17:33:52.857Z,97985.56
2023-05-01T17:36:57.935Z,97982.31
2023-05-01T17:40:01.969Z,97979.19
2023-05-01T17:43:05.106Z,97981.78
2023-05-01T17:46:08.157Z,97983.81
2023-05-01T17:49:11.296Z,97982.28
2023-05-01T17:52:14.394Z,97976.66
2023-05-01T17:55:18.490Z,97976.34
2023-05-01T17:58:22.650Z,97981.97
2023-05-01T18:01:26.092Z,97988.72
2023-05-01T18:04:31.279Z,97979.63
2023-05-01T18:07:34.484Z,97987.88
2023-05-01T18:10:37.517Z,97980.19
2023-05-01T18:13:42.903Z,97982.34
2023-05-01T18:16:45.903Z,97978.38
2023-05-01T18:19:50.148Z,97984.81
2023-05-01T18:22:54.634Z,97986.38
2023-05-01T18:25:57.752Z,97982.13
2023-05-01T18:29:01.179Z,97983.72
2023-05-01T18:32:04.649Z,97983.88
2023-05-01T18:35:08.549Z,97992.75
2023-05-01T18:38:12.041Z,97990.97
2023-05-01T18:41:14.951Z,97983.81
2023-05-01T18:44:18.474Z,97986.66
2023-05-01T18:47:21.553Z,98000.81
2023-05-01T18:50:24.404Z,98000.31
2023-05-01T18:53:27.383Z,98001.94
2023-05-01T18:56:30.269Z,98003.69
2023-05-01T18:59:33.330Z,98010.50
2023-05-01T19:02:37.216Z,98009.41
2023-05-01T19:05:41.897Z,98007.38
2023-05-01T19:08:44.927Z,98013.03
2023-05-01T19:11:48.000Z,98006.81
2023-05-01T19:14:51.074Z,98003.41
2023-05-01T19:17:54.202Z,97997.06
2023-05-01T19:20:56.999Z,98007.53
2023-05-01T19:24:00.120Z,98013.06
2023-05-01T19:27:03.675Z,98005.66
2023-05-01T19:30:07.462Z,98010.00
2023-05-01T19:33:10.484Z,98006.16
2023-05-01T19:36:13.642Z,98007.53
2023-05-01T19:39:16.630Z,97999.13
2023-05-01T19:42:19.602Z,98010.03
2023-05-01T19:45:22.389Z,98015.38
2023-05-01T19:48:25.255Z,98008.00
2023-05-01T19:51:28.591Z,98009.84
2023-05-01T19:54:31.595Z,98014.00
2023-05-01T19:57:34.392Z,98007.28
2023-05-01T20:00:37.279Z,98014.19
2023-05-01T20:03:40.579Z,98015.19
2023-05-01T20:06:43.450Z,98009.31
2023-05-01T20:09:46.394Z,98012.75
2023-05-01T20:12:49.331Z,98005.31
2023-05-01T20:15:52.317Z,98011.13
2023-05-01T20:18:55.173Z,98006.19
2023-05-01T20:21:58.297Z,98009.69
2023-05-01T20:25:01.509Z,98015.28
2023-05-01T20:28:04.667Z,98012.34
2023-05-01T20:31:07.415Z,98023.88
2023-05-01T20:34:10.870Z,98016.47
2023-05-01T20:37:13.697Z,98018.28
2023-05-01T20:40:16.894Z,98023.91
2023-05-01T20:43:22.317Z,98025.53
2023-05-01T20:46:25.156Z,98022.72
2023-05-01T20:49:28.972Z,98021.59
2023-05-01T20:52:31.855Z,98024.53
2023-05-01T20:55:34.842Z,98024.72
2023-05-01T20:58:37.702Z,98027.38
2023-05-01T21:01:40.605Z,98037.72
2023-05-01T21:04:43.705Z,98031.47
2023-05-01T21:07:46.701Z,98033.78
2023-05-01T21:10:49.445Z,98037.38
2023-05-01T21:13:52.258Z,98043.66
2023-05-01T21:16:55.450Z,98049.06
2023-05-01T21:20:01.704Z,98051.03
2023-05-01T21:23:05.082Z,98045.41
2023-05-01T21:26:07.742Z,98045.91
2023-05-01T21:29:10.844Z,98050.53
2023-05-01T21:32:13.721Z,98050.03
2023-05-01T21:35:19.288Z,98056.06
2023-05-01T21:38:23.337Z,98052.75
2023-05-01T21:41:26.133Z,98048.31
2023-05-01T21:44:31.004Z,98051.13
2023-05-01T21:47:45.470Z,98061.91
2023-05-01T21:50:51.762Z,98058.78
2023-05-01T21:53:55.842Z,98055.94
2023-05-01T21:57:00.334Z,98061.97
2023-05-01T22:00:05.612Z,98061.09
2023-05-01T22:03:11.200Z,98068.69
2023-05-01T22:06:14.388Z,98073.25
2023-05-01T22:09:17.135Z,98071.22
2023-05-01T22:12:20.410Z,98079.44
2023-05-01T22:15:23.538Z,98072.88
2023-05-01T22:18:27.526Z,98073.78
2023-05-01T22:21:32.106Z,98073.50
2023-05-01T22:24:36.657Z,98070.00
2023-05-01T22:27:39.708Z,98077.66
2023-05-01T22:30:44.493Z,98078.13
2023-05-01T22:33:48.415Z,98076.19
2023-05-01T22:36:51.079Z,98083.34
2023-05-01T22:39:54.434Z,98085.31
2023-05-01T22:42:57.418Z,98087.34
2023-05-01T22:46:00.763Z,98083.91
2023-05-01T22:49:04.547Z,98079.94
2023-05-01T22:52:07.459Z,98077.00
2023-05-01T22:55:10.466Z,98082.06
2023-05-01T22:58:13.283Z,98078.75
2023-05-01T23:01:16.333Z,98069.41
2023-05-01T23:04:19.456Z,98071.53
2023-05-01T23:07:22.699Z,98073.94
2023-05-01T23:10:27.370Z,98074.56
2023-05-01T23:13:32.497Z,98068.94
2023-05-01T23:16:40.068Z,98070.69
2023-05-01T23:19:44.199Z,98069.88
2023-05-01T23:22:48.144Z,98071.06
2023-05-01T23:25:51.120Z,98066.63
2023-05-01T23:28:54.069Z,98072.06
2023-05-01T23:31:57.291Z,98071.38
2023-05-01T23:35:05.413Z,98072.97
2023-05-01T23:38:08.738Z,98064.03
2023-05-01T23:41:11.516Z,98061.53
2023-05-01T23:44:14.343Z,98053.81
2023-05-01T23:47:17.447Z,98059.97
2023-05-01T23:50:20.360Z,98063.03
2023-05-01T23:53:23.129Z,98060.03
2023-05-01T23:56:26.007Z,98055.63
2023-05-01T23:59:28.704Z,98053.44
